Map

Track Data

SID SEASON NUMBER BASIN SUBBASIN NAME ISO_TIME NATURE LAT LON WMO_WIND WMO_PRES WMO_AGENCY TRACK_TYPE DIST2LAND LANDFALL IFLAG USA_AGENCY USA_ATCF_ID USA_LAT USA_LON USA_RECORD USA_STATUS USA_WIND USA_PRES USA_SSHS USA_R34_NE USA_R34_SE USA_R34_SW USA_R34_NW USA_R50_NE USA_R50_SE USA_R50_SW USA_R50_NW USA_R64_NE USA_R64_SE USA_R64_SW USA_R64_NW USA_POCI USA_ROCI USA_RMW USA_EYE TOKYO_LAT TOKYO_LON TOKYO_GRADE TOKYO_WIND TOKYO_PRES TOKYO_R50_DIR TOKYO_R50_LONG TOKYO_R50_SHORT TOKYO_R30_DIR TOKYO_R30_LONG TOKYO_R30_SHORT TOKYO_LAND CMA_LAT CMA_LON CMA_CAT CMA_WIND CMA_PRES HKO_LAT HKO_LON HKO_CAT HKO_WIND HKO_PRES NEWDELHI_LAT NEWDELHI_LON NEWDELHI_GRADE NEWDELHI_WIND NEWDELHI_PRES NEWDELHI_CI NEWDELHI_DP NEWDELHI_POCI REUNION_LAT REUNION_LON REUNION_TYPE REUNION_WIND REUNION_PRES REUNION_TNUM REUNION_CI REUNION_RMW REUNION_R34_NE REUNION_R34_SE REUNION_R34_SW REUNION_R34_NW REUNION_R50_NE REUNION_R50_SE REUNION_R50_SW REUNION_R50_NW REUNION_R64_NE REUNION_R64_SE REUNION_R64_SW REUNION_R64_NW BOM_LAT BOM_LON BOM_TYPE BOM_WIND BOM_PRES BOM_TNUM BOM_CI BOM_RMW BOM_R34_NE BOM_R34_SE BOM_R34_SW BOM_R34_NW BOM_R50_NE BOM_R50_SE BOM_R50_SW BOM_R50_NW BOM_R64_NE BOM_R64_SE BOM_R64_SW BOM_R64_NW BOM_ROCI BOM_POCI BOM_EYE BOM_POS_METHOD BOM_PRES_METHOD NADI_LAT NADI_LON NADI_CAT NADI_WIND NADI_PRES WELLINGTON_LAT WELLINGTON_LON WELLINGTON_WIND WELLINGTON_PRES DS824_LAT DS824_LON DS824_STAGE DS824_WIND DS824_PRES TD9636_LAT TD9636_LON TD9636_STAGE TD9636_WIND TD9636_PRES TD9635_LAT TD9635_LON TD9635_WIND TD9635_PRES TD9635_ROCI NEUMANN_LAT NEUMANN_LON NEUMANN_CLASS NEUMANN_WIND NEUMANN_PRES MLC_LAT MLC_LON MLC_CLASS MLC_WIND MLC_PRES USA_GUST BOM_GUST BOM_GUST_PER REUNION_GUST REUNION_GUST_PER USA_SEAHGT USA_SEARAD_NE USA_SEARAD_SE USA_SEARAD_SW USA_SEARAD_NW STORM_SPEED STORM_DIR
1923114S23141 1923 27 SP EA NOT_NAMED 1923-04-23 12:00:00 NR -22.8000 140.800 main 0 0 __________O___ -1 -22.8000 140.800 7 0 0
1923114S23141 1923 27 SP EA NOT_NAMED 1923-04-23 15:00:00 NR -22.8140 140.803 main 0 0 __________P___ -1 -22.8140 140.803 7 0 0
1923114S23141 1923 27 SP EA NOT_NAMED 1923-04-23 18:00:00 NR -22.8424 140.825 main 0 0 __________P___ -1 -22.8424 140.825 7 1 136
1923114S23141 1923 27 SP EA NOT_NAMED 1923-04-23 21:00:00 NR -22.8996 140.885 main 0 0 __________P___ -1 -22.8996 140.885 7 2 134
1923114S23141 1923 27 SP EA NOT_NAMED 1923-04-24 00:00:00 NR -23.0000 141.000 main 0 0 __________O___ -1 -23.0000 141.000 7 4 133
1923114S23141 1923 27 SP EA NOT_NAMED 1923-04-24 03:00:00 NR -23.1513 141.184 main 0 0 __________P___ -1 -23.1513 141.184 7 5 131
1923114S23141 1923 27 SP EA NOT_NAMED 1923-04-24 06:00:00 NR -23.3351 141.424 main 0 0 __________P___ -1 -23.3351 141.424 7 6 128
1923114S23141 1923 27 SP EA NOT_NAMED 1923-04-24 09:00:00 NR -23.5263 141.703 main 0 0 __________P___ -1 -23.5263 141.703 7 6 125
1923114S23141 1923 27 SP EA NOT_NAMED 1923-04-24 12:00:00 NR -23.7000 142.000 main 0 0 __________O___ -1 -23.7000 142.000 7 5 128
1923114S23141 1923 27 SP EA NOT_NAMED 1923-04-24 15:00:00 NR -23.8205 142.108 main 0 0 __________P___ -1 -23.8205 142.108 7 3 133
1923114S23141 1923 27 SP EA NOT_NAMED 1923-04-24 18:00:00 NR -23.9210 142.258 main 0 0 __________P___ -1 -23.9210 142.258 7 5 114
1923114S23141 1923 27 SP EA NOT_NAMED 1923-04-24 21:00:00 NR -24.0114 142.578 main 0 0 __________P___ -1 -24.0114 142.578 7 9 102
1923114S23141 1923 27 SP EA NOT_NAMED 1923-04-25 00:00:00 NR -24.1000 143.200 main 0 0 __________O___ -1 -24.1000 143.200 7 16 96
1923114S23141 1923 27 SP EA NOT_NAMED 1923-04-25 03:00:00 NR -24.1682 144.294 main 0 0 __________P___ -1 -24.1682 144.294 7 23 93
1923114S23141 1923 27 SP EA NOT_NAMED 1923-04-25 06:00:00 NR -24.2289 145.689 main 0 0 __________P___ -1 -24.2289 145.689 7 27 93
1923114S23141 1923 27 SP EA NOT_NAMED 1923-04-25 09:00:00 NR -24.2988 147.239 main 0 0 __________P___ -1 -24.2988 147.239 7 28 93
1923114S23141 1923 27 SP EA NOT_NAMED 1923-04-25 12:00:00 NR -24.4000 148.800 main 0 0 __________O___ -1 -24.4000 148.800 7 29 96
1923114S23141 1923 27 SP EA NOT_NAMED 1923-04-25 15:00:00 NR -24.5932 150.358 main 0 0 __________P___ -1 -24.5932 150.358 7 28 98
1923114S23141 1923 27 SP EA NOT_NAMED 1923-04-25 18:00:00 NR -24.8151 151.875 main 0 0 __________P___ -1 -24.8151 151.875 7 26 100
1923114S23141 1923 27 SP EA NOT_NAMED 1923-04-25 21:00:00 NR -25.0283 153.206 main 0 0 __________P___ -1 -25.0283 153.206 7 21 82
1923114S23141 1923 27 SP EA NOT_NAMED 1923-04-25 23:00:00 NR -24.5794 153.752 bom main 55 60 ______O___P___ -1 -22.3000 153.100 -25.1493 153.915 7 23 26
1923114S23141 1923 27 SP EA NOT_NAMED 1923-04-26 00:00:00 TS -23.9940 153.765 main 102 102 ______P__OO___ -1 -22.3791 153.177 -22.4000 153.200 TC -25.2000 154.200 7 12 16
1923114S23141 1923 27 SP EA NOT_NAMED 1923-04-26 03:00:00 TS -23.8319 153.984 main 132 132 ______P__PP___ -1 -22.6197 153.411 -22.7513 153.445 TC -25.2813 154.683 7 3 61
1923114S23141 1923 27 SP EA NOT_NAMED 1923-04-26 06:00:00 TS -23.8285 154.088 main 138 127 ______P__PP___ -1 -22.8726 153.646 -23.1023 153.692 TC -25.3290 154.827 7 3 127
1923114S23141 1923 27 SP EA NOT_NAMED 1923-04-26 09:00:00 TS -23.9876 154.203 main 127 120 ______P__PP___ -1 -23.1474 153.886 -23.4530 153.940 TC -25.3625 154.783 7 5 150
1923114S23141 1923 27 SP EA NOT_NAMED 1923-04-26 12:00:00 TS -24.2190 154.340 main 121 121 ______P__PO___ -1 -23.4536 154.131 -23.8033 154.189 TC -25.4000 154.700 7 5 147
1923114S23141 1923 27 SP EA NOT_NAMED 1923-04-26 15:00:00 TS -24.4467 154.530 main 129 124 ______P__PP___ -1 -23.8008 154.382 -24.1532 154.440 TC -25.3862 154.768 7 6 144
1923114S23141 1923 27 SP EA NOT_NAMED 1923-04-26 18:00:00 TS -24.6977 154.723 main 135 135 ______P__PP___ -1 -24.1985 154.642 -24.5027 154.692 TC -25.3919 154.835 7 7 146
1923114S23141 1923 27 SP EA NOT_NAMED 1923-04-26 21:00:00 TS -24.9949 154.931 main 151 151 ______P__PP___ -1 -24.6565 154.913 -24.8516 154.945 TC -25.4767 154.934 7 8 149
1923114S23141 1923 27 SP EA NOT_NAMED 1923-04-26 23:00:00 TS -25.2301 155.083 998 bom main 172 174 ______O__PP___ -1 -25.0000 155.100 998 4 -25.0839 155.115 TC -25.6065 155.035 7 9 150
1923114S23141 1923 27 SP EA NOT_NAMED 1923-04-27 00:00:00 TS -25.3614 155.165 main 186 186 ______P__OO___ -1 -25.1841 155.196 -25.2000 155.200 TC 35 998 -25.7000 155.100 7 11 156
1923114S23141 1923 27 SP EA NOT_NAMED 1923-04-27 03:00:00 TS -25.8915 155.410 main 224 224 ______P__PP___ -1 -25.7800 155.489 -25.7585 155.357 TC -26.1359 155.384 7 12 158
1923114S23141 1923 27 SP EA NOT_NAMED 1923-04-27 06:00:00 TS -26.4840 155.680 main 256 253 ______P__PP___ -1 -26.4262 155.786 -26.3174 155.516 TC -26.7084 155.737 7 13 158
1923114S23141 1923 27 SP EA NOT_NAMED 1923-04-27 09:00:00 TS -27.1104 155.959 main 266 256 ______P__PP___ -1 -27.1032 156.077 -26.8765 155.677 TC -27.3516 156.122 7 14 159
1923114S23141 1923 27 SP EA NOT_NAMED 1923-04-27 12:00:00 TS -27.7425 156.231 main 261 258 ______P__PO___ -1 -27.7916 156.355 -27.4358 155.839 TC -28.0000 156.500 7 13 159
1923114S23141 1923 27 SP EA NOT_NAMED 1923-04-27 15:00:00 TS -28.3522 156.489 main 283 283 ______P__PP___ -1 -28.4719 156.609 -27.9951 156.003 TC -28.5897 156.854 7 13 160
1923114S23141 1923 27 SP EA NOT_NAMED 1923-04-27 18:00:00 TS -28.9489 156.729 main 301 301 ______P__PP___ -1 -29.1248 156.831 -28.5542 156.168 TC -29.1676 157.189 7 12 161
1923114S23141 1923 27 SP EA NOT_NAMED 1923-04-27 21:00:00 TS -29.5186 156.941 main 326 326 ______P__PP___ -1 -29.7311 157.010 -29.1131 156.336 TC -29.7117 157.479 7 12 163
1923114S23141 1923 27 SP EA NOT_NAMED 1923-04-27 23:00:00 TS -29.8768 157.061 bom main 356 356 ______O__PP___ -1 -30.1000 157.100 -29.4856 156.448 TC -30.0448 157.636 7 11 164
1923114S23141 1923 27 SP EA NOT_NAMED 1923-04-28 00:00:00 TS -30.0479 157.113 main 360 360 ______P__PO___ -1 -30.2720 157.135 -29.6717 156.505 TC -30.2000 157.700 7 10 167
1923114S23141 1923 27 SP EA NOT_NAMED 1923-04-28 03:00:00 TS -30.5235 157.239 main 380 380 ______P__PP___ -1 -30.7419 157.206 -30.2298 156.676 TC -30.5989 157.836 7 10 167
1923114S23141 1923 27 SP EA NOT_NAMED 1923-04-28 06:00:00 TS -30.9785 157.371 main 409 408 ______P__PP___ -1 -31.1561 157.234 -30.7873 156.849 TC -30.9444 157.900 7 9 166
1923114S23141 1923 27 SP EA NOT_NAMED 1923-04-28 09:00:00 TS -31.3726 157.488 main 418 418 ______P__PP___ -1 -31.5313 157.230 -31.3441 157.023 TC -31.2678 157.913 7 8 165
1923114S23141 1923 27 SP EA NOT_NAMED 1923-04-28 12:00:00 TS -31.7241 157.603 main 431 431 ______P__OO___ -1 -31.8844 157.209 -31.9000 157.200 TC -31.6000 157.900 7 7 150
1923114S23141 1923 27 SP EA NOT_NAMED 1923-04-28 13:00:00 NR -31.7813 157.765 bom main 451 451 ______O___P___ -1 -32.0000 157.200 TC -31.7266 157.907 7 7 135
1923114S23141 1923 27 SP EA NOT_NAMED 1923-04-28 15:00:00 NR -31.9856 157.913 main 465 465 __________P___ -1 TC -31.9856 157.913 7 7 169
1923114S23141 1923 27 SP EA NOT_NAMED 1923-04-28 18:00:00 NR -32.3849 157.902 main 475 475 __________P___ -1 TC -32.3849 157.902 7 8 182
1923114S23141 1923 27 SP EA NOT_NAMED 1923-04-28 21:00:00 NR -32.7918 157.866 main 490 484 __________P___ -1 TC -32.7918 157.866 7 8 186
1923114S23141 1923 27 SP EA NOT_NAMED 1923-04-29 00:00:00 NR -33.2000 157.800 main 493 491 __________O___ -1 TC -33.2000 157.800 7 8 190
1923114S23141 1923 27 SP EA NOT_NAMED 1923-04-29 03:00:00 NR -33.6042 157.688 main 499 495 __________P___ -1 TC -33.6042 157.688 7 8 194
1923114S23141 1923 27 SP EA NOT_NAMED 1923-04-29 06:00:00 NR -34.0077 157.551 main 506 497 __________P___ -1 TC -34.0077 157.551 7 8 196
1923114S23141 1923 27 SP EA NOT_NAMED 1923-04-29 09:00:00 NR -34.4073 157.413 main 505 505 __________P___ -1 TC -34.4073 157.413 7 8 195
1923114S23141 1923 27 SP EA NOT_NAMED 1923-04-29 12:00:00 NR -34.8000 157.300 main 518 518 __________O___ -1 TC -34.8000 157.300 7 8 191
1923114S23141 1923 27 SP EA NOT_NAMED 1923-04-29 15:00:00 NR -35.1836 157.230 main 534 534 __________P___ -1 TC -35.1836 157.230 7 8 186
1923114S23141 1923 27 SP EA NOT_NAMED 1923-04-29 18:00:00 NR -35.5598 157.199 main 560 560 __________P___ -1 TC -35.5598 157.199 7 8 183
1923114S23141 1923 27 SP EA NOT_NAMED 1923-04-29 21:00:00 NR -35.9312 157.193 main 576 576 __________P___ -1 TC -35.9312 157.193 7 7 179
1923114S23141 1923 27 SP EA NOT_NAMED 1923-04-30 00:00:00 NR -36.3000 157.200 main 588 __________O___ -1 -36.3000 157.200 7 7 178

Digital Typhoon Data and Search

About IBTrACS Database

This database is a web-friendly format of International Best Track Archive for Climate Stewardship (IBTrACS), a global best track data archive curated by NOAA dating back to 1842.

Updated: 2021-12-03